sensor_id;sensor_type;location;lat;lon;timestamp;pressure;altitude;pressure_sealevel;temperature;humidity
27304;BME280;14791;52.392;13.092;2022-12-18T00:00:19;102827.53;;;2.04;48.59
27304;BME280;14791;52.392;13.092;2022-12-18T00:02:48;102828.81;;;2.01;48.66
27304;BME280;14791;52.392;13.092;2022-12-18T00:05:17;102829.67;;;1.98;48.75
27304;BME280;14791;52.392;13.092;2022-12-18T00:07:47;102833.20;;;2.00;48.81
27304;BME280;14791;52.392;13.092;2022-12-18T00:10:16;102831.91;;;2.02;48.78
27304;BME280;14791;52.392;13.092;2022-12-18T00:12:45;102836.77;;;2.04;48.73
27304;BME280;14791;52.392;13.092;2022-12-18T00:15:14;102831.49;;;2.04;48.73
27304;BME280;14791;52.392;13.092;2022-12-18T00:17:43;102831.92;;;2.05;48.78
27304;BME280;14791;52.392;13.092;2022-12-18T00:20:12;102827.09;;;2.06;48.77
27304;BME280;14791;52.392;13.092;2022-12-18T00:22:41;102827.55;;;2.07;48.68
27304;BME280;14791;52.392;13.092;2022-12-18T00:25:10;102824.47;;;2.07;48.71
27304;BME280;14791;52.392;13.092;2022-12-18T00:27:39;102830.19;;;2.07;48.76
27304;BME280;14791;52.392;13.092;2022-12-18T00:30:09;102824.04;;;2.06;48.81
27304;BME280;14791;52.392;13.092;2022-12-18T00:32:38;102828.87;;;2.07;48.87
27304;BME280;14791;52.392;13.092;2022-12-18T00:35:07;102824.91;;;2.07;48.95
27304;BME280;14791;52.392;13.092;2022-12-18T00:37:36;102827.98;;;2.08;48.88
27304;BME280;14791;52.392;13.092;2022-12-18T00:40:06;102832.41;;;2.09;48.91
27304;BME280;14791;52.392;13.092;2022-12-18T00:42:35;102825.81;;;2.09;48.89
27304;BME280;14791;52.392;13.092;2022-12-18T00:45:26;102828.88;;;2.10;48.91
27304;BME280;14791;52.392;13.092;2022-12-18T00:47:56;102825.36;;;2.06;48.93
27304;BME280;14791;52.392;13.092;2022-12-18T00:50:25;102825.77;;;2.04;48.95
27304;BME280;14791;52.392;13.092;2022-12-18T00:52:54;102822.25;;;2.05;48.97
27304;BME280;14791;52.392;13.092;2022-12-18T00:55:23;102827.97;;;2.05;48.98
27304;BME280;14791;52.392;13.092;2022-12-18T00:57:52;102825.77;;;2.04;48.94
27304;BME280;14791;52.392;13.092;2022-12-18T01:00:22;102827.97;;;2.05;48.96
27304;BME280;14791;52.392;13.092;2022-12-18T01:02:51;102825.33;;;2.05;48.92
27304;BME280;14791;52.392;13.092;2022-12-18T01:05:20;102823.12;;;2.03;48.86
27304;BME280;14791;52.392;13.092;2022-12-18T01:07:49;102820.91;;;2.01;48.84
27304;BME280;14791;52.392;13.092;2022-12-18T01:10:18;102832.33;;;2.00;48.92
27304;BME280;14791;52.392;13.092;2022-12-18T01:12:46;102830.14;;;1.99;48.98
27304;BME280;14791;52.392;13.092;2022-12-18T01:15:18;102839.77;;;1.99;48.98
27304;BME280;14791;52.392;13.092;2022-12-18T01:17:47;102841.98;;;1.98;49.04
27304;BME280;14791;52.392;13.092;2022-12-18T01:20:16;102845.93;;;1.98;49.10
27304;BME280;14791;52.392;13.092;2022-12-18T01:22:45;102849.05;;;2.02;49.13
27304;BME280;14791;52.392;13.092;2022-12-18T01:25:14;102850.37;;;2.05;49.18
27304;BME280;14791;52.392;13.092;2022-12-18T01:27:44;102849.95;;;2.07;49.19
27304;BME280;14791;52.392;13.092;2022-12-18T01:30:13;102859.22;;;2.13;49.18
27304;BME280;14791;52.392;13.092;2022-12-18T01:32:42;102862.77;;;2.17;49.13
27304;BME280;14791;52.392;13.092;2022-12-18T01:35:10;102854.00;;;2.19;49.10
27304;BME280;14791;52.392;13.092;2022-12-18T01:37:39;102852.69;;;2.22;49.07
27304;BME280;14791;52.392;13.092;2022-12-18T01:40:09;102854.93;;;2.26;48.94
27304;BME280;14791;52.392;13.092;2022-12-18T01:42:38;102858.00;;;2.27;48.91
27304;BME280;14791;52.392;13.092;2022-12-18T01:48:06;102866.78;;;2.27;48.78
27304;BME280;14791;52.392;13.092;2022-12-18T01:50:38;102866.77;;;2.24;48.78
27304;BME280;14791;52.392;13.092;2022-12-18T01:53:22;102863.23;;;2.19;48.74
27304;BME280;14791;52.392;13.092;2022-12-18T01:55:56;102866.70;;;2.15;48.76
27304;BME280;14791;52.392;13.092;2022-12-18T02:01:00;102872.33;;;2.02;48.85
27304;BME280;14791;52.392;13.092;2022-12-18T02:03:29;102875.03;;;2.08;48.97
27304;BME280;14791;52.392;13.092;2022-12-18T02:06:47;102871.06;;;2.10;48.94
27304;BME280;14791;52.392;13.092;2022-12-18T02:08:48;102875.05;;;2.11;48.87
27304;BME280;14791;52.392;13.092;2022-12-18T02:11:31;102871.95;;;2.09;48.76
27304;BME280;14791;52.392;13.092;2022-12-18T02:28:49;102874.72;;;1.73;49.03
27304;BME280;14791;52.392;13.092;2022-12-18T02:31:21;102880.39;;;1.68;49.13
27304;BME280;14791;52.392;13.092;2022-12-18T02:33:50;102879.08;;;1.68;49.08
27304;BME280;14791;52.392;13.092;2022-12-18T02:36:22;102873.34;;;1.67;49.02
27304;BME280;14791;52.392;13.092;2022-12-18T02:38:54;102879.48;;;1.67;48.99
27304;BME280;14791;52.392;13.092;2022-12-18T02:41:25;102875.97;;;1.67;48.98
27304;BME280;14791;52.392;13.092;2022-12-18T02:44:00;102876.85;;;1.66;48.95
27304;BME280;14791;52.392;13.092;2022-12-18T02:46:36;102884.29;;;1.65;48.99
27304;BME280;14791;52.392;13.092;2022-12-18T02:57:34;102892.54;;;1.55;49.13
27304;BME280;14791;52.392;13.092;2022-12-18T03:00:10;102893.42;;;1.54;49.05
27304;BME280;14791;52.392;13.092;2022-12-18T03:05:25;102892.08;;;1.53;49.15
27304;BME280;14791;52.392;13.092;2022-12-18T03:08:01;102891.23;;;1.54;49.20
27304;BME280;14791;52.392;13.092;2022-12-18T03:10:29;102891.22;;;1.55;49.24
27304;BME280;14791;52.392;13.092;2022-12-18T03:13:16;102892.54;;;1.55;49.27
27304;BME280;14791;52.392;13.092;2022-12-18T03:15:49;102892.59;;;1.60;49.33
27304;BME280;14791;52.392;13.092;2022-12-18T03:18:21;102905.81;;;1.63;49.35
27304;BME280;14791;52.392;13.092;2022-12-18T03:20:53;102895.71;;;1.64;49.29
27304;BME280;14791;52.392;13.092;2022-12-18T03:23:27;102891.34;;;1.67;49.20
27304;BME280;14791;52.392;13.092;2022-12-18T03:26:02;102892.25;;;1.68;49.15
27304;BME280;14791;52.392;13.092;2022-12-18T03:28:33;102887.83;;;1.67;49.15
27304;BME280;14791;52.392;13.092;2022-12-18T03:31:05;102888.70;;;1.67;49.14
27304;BME280;14791;52.392;13.092;2022-12-18T03:36:08;102888.24;;;1.65;49.24
27304;BME280;14791;52.392;13.092;2022-12-18T03:38:38;102887.39;;;1.66;49.26
27304;BME280;14791;52.392;13.092;2022-12-18T03:41:38;102885.66;;;1.68;49.26
27304;BME280;14791;52.392;13.092;2022-12-18T03:44:14;102884.80;;;1.70;49.20
27304;BME280;14791;52.392;13.092;2022-12-18T03:46:53;102882.09;;;1.64;49.33
27304;BME280;14791;52.392;13.092;2022-12-18T03:49:25;102876.85;;;1.66;49.27
27304;BME280;14791;52.392;13.092;2022-12-18T03:52:13;102882.55;;;1.67;49.23
27304;BME280;14791;52.392;13.092;2022-12-18T03:54:43;102871.60;;;1.69;49.22
27304;BME280;14791;52.392;13.092;2022-12-18T03:57:18;102881.70;;;1.69;49.22
27304;BME280;14791;52.392;13.092;2022-12-18T03:59:51;102892.30;;;1.73;49.09
27304;BME280;14791;52.392;13.092;2022-12-18T04:02:23;102903.24;;;1.72;48.98
27304;BME280;14791;52.392;13.092;2022-12-18T04:04:56;102906.77;;;1.71;48.98
27304;BME280;14791;52.392;13.092;2022-12-18T04:07:26;102906.77;;;1.71;48.88
27304;BME280;14791;52.392;13.092;2022-12-18T04:09:59;102907.15;;;1.67;48.82
27304;BME280;14791;52.392;13.092;2022-12-18T04:12:31;102911.08;;;1.64;48.84
27304;BME280;14791;52.392;13.092;2022-12-18T04:15:00;102915.45;;;1.61;48.90
27304;BME280;14791;52.392;13.092;2022-12-18T04:17:30;102914.98;;;1.58;48.92
27304;BME280;14791;52.392;13.092;2022-12-18T04:19:59;102909.26;;;1.56;48.92
27304;BME280;14791;52.392;13.092;2022-12-18T04:22:28;102913.62;;;1.54;48.99
27304;BME280;14791;52.392;13.092;2022-12-18T04:24:59;102922.78;;;1.51;49.04
27304;BME280;14791;52.392;13.092;2022-12-18T04:27:29;102930.69;;;1.49;49.10
27304;BME280;14791;52.392;13.092;2022-12-18T04:29:58;102930.25;;;1.49;49.19
27304;BME280;14791;52.392;13.092;2022-12-18T04:32:27;102922.38;;;1.51;49.24
27304;BME280;14791;52.392;13.092;2022-12-18T04:34:56;102928.55;;;1.55;49.21
27304;BME280;14791;52.392;13.092;2022-12-18T04:37:25;102918.03;;;1.58;49.23
27304;BME280;14791;52.392;13.092;2022-12-18T04:39:55;102913.69;;;1.61;49.16
27304;BME280;14791;52.392;13.092;2022-12-18T04:42:26;102914.59;;;1.63;49.01
27304;BME280;14791;52.392;13.092;2022-12-18T04:44:55;102923.38;;;1.64;48.97
27304;BME280;14791;52.392;13.092;2022-12-18T04:47:23;102924.26;;;1.63;48.89
27304;BME280;14791;52.392;13.092;2022-12-18T04:49:52;102920.72;;;1.62;48.85
27304;BME280;14791;52.392;13.092;2022-12-18T04:52:21;102917.18;;;1.59;48.83
27304;BME280;14791;52.392;13.092;2022-12-18T04:54:50;102914.05;;;1.55;48.88
27304;BME280;14791;52.392;13.092;2022-12-18T04:57:19;102917.98;;;1.52;48.99
27304;BME280;14791;52.392;13.092;2022-12-18T04:59:48;102926.73;;;1.51;49.09
27304;BME280;14791;52.392;13.092;2022-12-18T05:02:17;102934.64;;;1.51;49.09
27304;BME280;14791;52.392;13.092;2022-12-18T05:04:46;102941.66;;;1.50;49.10
27304;BME280;14791;52.392;13.092;2022-12-18T05:07:15;102943.86;;;1.51;49.11
27304;BME280;14791;52.392;13.092;2022-12-18T05:09:44;102943.42;;;1.49;49.11
27304;BME280;14791;52.392;13.092;2022-12-18T05:12:12;102937.71;;;1.50;49.20
27304;BME280;14791;52.392;13.092;2022-12-18T05:14:41;102940.34;;;1.50;49.18
27304;BME280;14791;52.392;13.092;2022-12-18T05:17:10;102939.91;;;1.51;49.18
27304;BME280;14791;52.392;13.092;2022-12-18T05:19:40;102941.69;;;1.52;49.17
27304;BME280;14791;52.392;13.092;2022-12-18T05:22:09;102939.05;;;1.52;49.21
27304;BME280;14791;52.392;13.092;2022-12-18T05:24:38;102947.45;;;1.56;49.23
27304;BME280;14791;52.392;13.092;2022-12-18T05:27:06;102954.91;;;1.58;49.20
27304;BME280;14791;52.392;13.092;2022-12-18T05:29:35;102942.64;;;1.60;49.06
27304;BME280;14791;52.392;13.092;2022-12-18T05:32:04;102946.59;;;1.60;49.11
27304;BME280;14791;52.392;13.092;2022-12-18T05:34:33;102957.14;;;1.60;49.10
27304;BME280;14791;52.392;13.092;2022-12-18T05:37:02;102958.45;;;1.58;49.15
27304;BME280;14791;52.392;13.092;2022-12-18T05:39:31;102963.25;;;1.57;49.20
27304;BME280;14791;52.392;13.092;2022-12-18T05:42:00;102963.73;;;1.58;49.22
27304;BME280;14791;52.392;13.092;2022-12-18T05:44:29;102961.94;;;1.57;49.28
27304;BME280;14791;52.392;13.092;2022-12-18T05:46:58;102964.60;;;1.59;49.28
27304;BME280;14791;52.392;13.092;2022-12-18T05:49:26;102965.05;;;1.58;49.26
27304;BME280;14791;52.392;13.092;2022-12-18T05:51:55;102959.75;;;1.57;49.22
27304;BME280;14791;52.392;13.092;2022-12-18T05:54:26;102964.58;;;1.56;49.31
27304;BME280;14791;52.392;13.092;2022-12-18T05:56:54;102968.09;;;1.56;49.42
27304;BME280;14791;52.392;13.092;2022-12-18T05:59:24;102967.68;;;1.58;49.42
27304;BME280;14791;52.392;13.092;2022-12-18T06:01:53;102968.98;;;1.60;49.49
27304;BME280;14791;52.392;13.092;2022-12-18T06:04:22;102970.77;;;1.62;49.49
27304;BME280;14791;52.392;13.092;2022-12-18T06:06:51;102974.34;;;1.66;49.51
27304;BME280;14791;52.392;13.092;2022-12-18T06:09:20;102974.37;;;1.69;49.49
27304;BME280;14791;52.392;13.092;2022-12-18T06:11:49;102966.05;;;1.71;49.47
27304;BME280;14791;52.392;13.092;2022-12-18T06:14:19;102974.42;;;1.74;49.50
27304;BME280;14791;52.392;13.092;2022-12-18T06:16:52;102983.20;;;1.74;49.52
27304;BME280;14791;52.392;13.092;2022-12-18T06:19:21;102985.86;;;1.77;49.56
27304;BME280;14791;52.392;13.092;2022-12-18T06:21:50;102985.89;;;1.79;49.53
27304;BME280;14791;52.392;13.092;2022-12-18T06:24:19;102981.49;;;1.79;49.53
27304;BME280;14791;52.392;13.092;2022-12-18T06:26:48;102983.72;;;1.81;49.56
27304;BME280;14791;52.392;13.092;2022-12-18T06:29:17;102980.64;;;1.82;49.63
27304;BME280;14791;52.392;13.092;2022-12-18T06:31:46;102971.03;;;1.85;49.64
27304;BME280;14791;52.392;13.092;2022-12-18T06:34:15;102978.11;;;1.89;49.56
27304;BME280;14791;52.392;13.092;2022-12-18T06:36:43;102989.52;;;1.91;49.56
27304;BME280;14791;52.392;13.092;2022-12-18T06:39:12;102991.75;;;1.94;49.52
27304;BME280;14791;52.392;13.092;2022-12-18T06:41:41;103000.97;;;1.94;49.52
27304;BME280;14791;52.392;13.092;2022-12-18T06:44:10;103008.03;;;1.95;49.56
27304;BME280;14791;52.392;13.092;2022-12-18T06:46:39;103015.94;;;1.96;49.49
27304;BME280;14791;52.392;13.092;2022-12-18T06:49:08;103020.36;;;1.99;49.54
27304;BME280;14791;52.392;13.092;2022-12-18T06:51:37;103027.44;;;2.03;49.58
27304;BME280;14791;52.392;13.092;2022-12-18T06:54:06;103034.52;;;2.07;49.56
27304;BME280;14791;52.392;13.092;2022-12-18T06:56:35;103027.10;;;2.11;49.53
27304;BME280;14791;52.392;13.092;2022-12-18T06:59:04;103020.09;;;2.15;49.52
27304;BME280;14791;52.392;13.092;2022-12-18T07:01:33;103017.50;;;2.19;49.51
27304;BME280;14791;52.392;13.092;2022-12-18T07:04:02;103024.11;;;2.22;49.50
27304;BME280;14791;52.392;13.092;2022-12-18T07:06:31;103036.91;;;2.27;49.52
27304;BME280;14791;52.392;13.092;2022-12-18T07:09:00;103038.71;;;2.31;49.51
27304;BME280;14791;52.392;13.092;2022-12-18T07:11:29;103029.97;;;2.36;49.46
27304;BME280;14791;52.392;13.092;2022-12-18T07:13:57;103034.41;;;2.40;49.49
27304;BME280;14791;52.392;13.092;2022-12-18T07:16:26;103022.11;;;2.43;49.49
27304;BME280;14791;52.392;13.092;2022-12-18T07:18:57;103021.72;;;2.47;49.38
27304;BME280;14791;52.392;13.092;2022-12-18T07:21:26;103015.98;;;2.49;49.37
27304;BME280;14791;52.392;13.092;2022-12-18T07:23:55;103016.05;;;2.52;49.34
27304;BME280;14791;52.392;13.092;2022-12-18T07:26:24;103014.30;;;2.54;49.28
27304;BME280;14791;52.392;13.092;2022-12-18T07:28:57;103016.48;;;2.56;49.28
27304;BME280;14791;52.392;13.092;2022-12-18T07:31:26;103016.95;;;2.57;49.28
27304;BME280;14791;52.392;13.092;2022-12-18T07:33:55;103019.13;;;2.56;49.34
27304;BME280;14791;52.392;13.092;2022-12-18T07:36:24;103012.53;;;2.56;49.32
27304;BME280;14791;52.392;13.092;2022-12-18T07:38:53;103009.04;;;2.57;49.35
27304;BME280;14791;52.392;13.092;2022-12-18T07:41:22;103011.23;;;2.58;49.45
27304;BME280;14791;52.392;13.092;2022-12-18T07:43:51;103011.27;;;2.59;49.49
27304;BME280;14791;52.392;13.092;2022-12-18T07:46:20;103012.57;;;2.61;49.46
27304;BME280;14791;52.392;13.092;2022-12-18T07:48:49;103015.23;;;2.62;49.44
27304;BME280;14791;52.392;13.092;2022-12-18T07:51:19;103013.91;;;2.62;49.39
27304;BME280;14791;52.392;13.092;2022-12-18T07:53:47;103009.52;;;2.61;49.47
27304;BME280;14791;52.392;13.092;2022-12-18T07:56:16;103012.57;;;2.61;49.47
27304;BME280;14791;52.392;13.092;2022-12-18T07:58:45;103021.39;;;2.61;49.46
27304;BME280;14791;52.392;13.092;2022-12-18T08:01:14;103021.81;;;2.59;49.52
27304;BME280;14791;52.392;13.092;2022-12-18T08:03:43;103022.27;;;2.62;49.57
27304;BME280;14791;52.392;13.092;2022-12-18T08:06:12;103023.59;;;2.63;49.57
27304;BME280;14791;52.392;13.092;2022-12-18T08:08:41;103024.50;;;2.64;49.54
27304;BME280;14791;52.392;13.092;2022-12-18T08:11:10;103027.13;;;2.64;49.60
27304;BME280;14791;52.392;13.092;2022-12-18T08:13:39;103032.42;;;2.67;49.67
27304;BME280;14791;52.392;13.092;2022-12-18T08:16:08;103042.12;;;2.69;49.64
27304;BME280;14791;52.392;13.092;2022-12-18T08:18:37;103048.73;;;2.72;49.55
27304;BME280;14791;52.392;13.092;2022-12-18T08:21:10;103053.16;;;2.73;49.47
27304;BME280;14791;52.392;13.092;2022-12-18T08:23:40;103049.64;;;2.74;49.48
27304;BME280;14791;52.392;13.092;2022-12-18T08:26:10;103047.46;;;2.75;49.48
27304;BME280;14791;52.392;13.092;2022-12-18T08:28:40;103050.10;;;2.75;49.38
27304;BME280;14791;52.392;13.092;2022-12-18T08:31:09;103048.31;;;2.74;49.29
27304;BME280;14791;52.392;13.092;2022-12-18T08:33:39;103054.48;;;2.73;49.31
27304;BME280;14791;52.392;13.092;2022-12-18T08:36:09;103059.76;;;2.73;49.44
27304;BME280;14791;52.392;13.092;2022-12-18T08:38:38;103057.13;;;2.73;49.47
27304;BME280;14791;52.392;13.092;2022-12-18T08:41:10;103060.66;;;2.75;49.48
27304;BME280;14791;52.392;13.092;2022-12-18T08:43:39;103068.59;;;2.79;49.47
27304;BME280;14791;52.392;13.092;2022-12-18T08:46:31;103067.76;;;2.83;49.40
27304;BME280;14791;52.392;13.092;2022-12-18T08:48:58;103075.67;;;2.83;49.46
27304;BME280;14791;52.392;13.092;2022-12-18T08:51:27;103080.09;;;2.85;49.41
27304;BME280;14791;52.392;13.092;2022-12-18T08:53:56;103095.09;;;2.91;49.39
27304;BME280;14791;52.392;13.092;2022-12-18T08:56:25;103092.46;;;2.94;49.35
27304;BME280;14791;52.392;13.092;2022-12-18T08:58:55;103096.91;;;2.98;49.25
27304;BME280;14791;52.392;13.092;2022-12-18T09:01:24;103093.84;;;3.00;49.28
27304;BME280;14791;52.392;13.092;2022-12-18T09:03:53;103095.16;;;3.02;49.26
27304;BME280;14791;52.392;13.092;2022-12-18T09:06:23;103091.67;;;3.06;49.15
27304;BME280;14791;52.392;13.092;2022-12-18T09:08:53;103090.81;;;3.07;49.14
27304;BME280;14791;52.392;13.092;2022-12-18T09:11:25;103094.34;;;3.07;49.10
27304;BME280;14791;52.392;13.092;2022-12-18T09:13:54;103096.09;;;3.08;49.12
27304;BME280;14791;52.392;13.092;2022-12-18T09:16:25;103098.31;;;3.10;49.11
27304;BME280;14791;52.392;13.092;2022-12-18T09:18:56;103085.10;;;3.10;49.12
27304;BME280;14791;52.392;13.092;2022-12-18T09:21:29;103091.72;;;3.13;49.18
27304;BME280;14791;52.392;13.092;2022-12-18T09:23:58;103093.08;;;3.16;49.22
27304;BME280;14791;52.392;13.092;2022-12-18T09:26:28;103095.30;;;3.18;49.24
27304;BME280;14791;52.392;13.092;2022-12-18T09:28:57;103089.56;;;3.20;49.25
27304;BME280;14791;52.392;13.092;2022-12-18T09:31:26;103089.61;;;3.24;49.24
27304;BME280;14791;52.392;13.092;2022-12-18T09:33:55;103097.55;;;3.27;49.20
27304;BME280;14791;52.392;13.092;2022-12-18T09:36:25;103099.77;;;3.32;49.14
27304;BME280;14791;52.392;13.092;2022-12-18T09:38:54;103098.03;;;3.34;49.07
27304;BME280;14791;52.392;13.092;2022-12-18T09:41:43;103090.11;;;3.37;49.05
27304;BME280;14791;52.392;13.092;2022-12-18T09:44:18;103078.69;;;3.41;49.02
27304;BME280;14791;52.392;13.092;2022-12-18T09:47:00;103069.87;;;3.39;49.12
27304;BME280;14791;52.392;13.092;2022-12-18T09:49:30;103061.09;;;3.40;49.07
27304;BME280;14791;52.392;13.092;2022-12-18T09:52:05;103052.27;;;3.41;49.07
27304;BME280;14791;52.392;13.092;2022-12-18T09:54:41;103051.41;;;3.44;49.02
27304;BME280;14791;52.392;13.092;2022-12-18T09:57:17;103051.42;;;3.45;49.00
27304;BME280;14791;52.392;13.092;2022-12-18T09:59:56;103051.42;;;3.45;48.95
27304;BME280;14791;52.392;13.092;2022-12-18T10:02:23;103044.81;;;3.45;48.94
27304;BME280;14791;52.392;13.092;2022-12-18T10:05:11;103037.31;;;3.46;48.92
27304;BME280;14791;52.392;13.092;2022-12-18T10:10:39;103042.59;;;3.43;49.00
27304;BME280;14791;52.392;13.092;2022-12-18T10:19:16;103040.78;;;3.34;49.07
27304;BME280;14791;52.392;13.092;2022-12-18T10:21:44;103037.69;;;3.32;49.10
27304;BME280;14791;52.392;13.092;2022-12-18T10:27:14;103034.58;;;3.28;49.14
27304;BME280;14791;52.392;13.092;2022-12-18T10:29:40;103042.49;;;3.25;49.18
27304;BME280;14791;52.392;13.092;2022-12-18T10:32:30;103046.92;;;3.26;49.20
27304;BME280;14791;52.392;13.092;2022-12-18T10:34:48;103037.22;;;3.28;49.12
27304;BME280;14791;52.392;13.092;2022-12-18T10:37:20;103029.30;;;3.26;49.11
27304;BME280;14791;52.392;13.092;2022-12-18T10:40:11;103024.00;;;3.28;49.12
27304;BME280;14791;52.392;13.092;2022-12-18T10:42:40;103025.78;;;3.30;49.16
27304;BME280;14791;52.392;13.092;2022-12-18T10:45:13;103016.09;;;3.29;49.33
27304;BME280;14791;52.392;13.092;2022-12-18T10:47:46;103009.52;;;3.34;49.37
27304;BME280;14791;52.392;13.092;2022-12-18T10:50:36;103002.06;;;3.38;49.31
27304;BME280;14791;52.392;13.092;2022-12-18T10:53:02;102997.67;;;3.43;49.33
27304;BME280;14791;52.392;13.092;2022-12-18T10:55:37;102991.50;;;3.44;49.32
27304;BME280;14791;52.392;13.092;2022-12-18T10:58:55;102996.82;;;3.47;49.36
27304;BME280;14791;52.392;13.092;2022-12-18T11:06:22;103003.86;;;3.51;49.17
27304;BME280;14791;52.392;13.092;2022-12-18T11:09:01;103007.84;;;3.50;49.22
27304;BME280;14791;52.392;13.092;2022-12-18T11:11:31;103004.75;;;3.50;49.11
27304;BME280;14791;52.392;13.092;2022-12-18T11:14:16;103002.97;;;3.49;49.07
27304;BME280;14791;52.392;13.092;2022-12-18T11:16:46;103011.36;;;3.50;49.16
27304;BME280;14791;52.392;13.092;2022-12-18T11:22:02;102999.47;;;3.50;49.23
27304;BME280;14791;52.392;13.092;2022-12-18T11:24:34;102993.72;;;3.49;49.31
27304;BME280;14791;52.392;13.092;2022-12-18T11:27:15;102991.98;;;3.53;49.35
27304;BME280;14791;52.392;13.092;2022-12-18T11:29:39;102994.19;;;3.56;49.30
27304;BME280;14791;52.392;13.092;2022-12-18T11:32:35;102992.90;;;3.59;49.33
27304;BME280;14791;52.392;13.092;2022-12-18T11:35:23;102999.50;;;3.62;49.25
27304;BME280;14791;52.392;13.092;2022-12-18T11:37:55;102998.61;;;3.60;49.38
27304;BME280;14791;52.392;13.092;2022-12-18T11:40:22;103002.59;;;3.62;49.42
27304;BME280;14791;52.392;13.092;2022-12-18T11:43:02;103005.23;;;3.65;49.53
27304;BME280;14791;52.392;13.092;2022-12-18T11:45:37;103006.12;;;3.69;49.52
27304;BME280;14791;52.392;13.092;2022-12-18T11:48:13;103014.08;;;3.72;49.44
27304;BME280;14791;52.392;13.092;2022-12-18T11:53:14;103021.16;;;3.79;49.41
27304;BME280;14791;52.392;13.092;2022-12-18T11:56:00;103017.61;;;3.83;49.32
27304;BME280;14791;52.392;13.092;2022-12-18T11:58:52;103025.16;;;3.88;49.22
27304;BME280;14791;52.392;13.092;2022-12-18T12:04:10;103022.50;;;3.94;49.27
27304;BME280;14791;52.392;13.092;2022-12-18T12:26:45;103021.21;;;4.00;49.25
27304;BME280;14791;52.392;13.092;2022-12-18T12:39:59;103021.69;;;4.17;49.22
27304;BME280;14791;52.392;13.092;2022-12-18T12:42:44;103023.43;;;4.21;49.17
27304;BME280;14791;52.392;13.092;2022-12-18T12:45:28;103002.72;;;4.25;49.17
27304;BME280;14791;52.392;13.092;2022-12-18T12:47:58;102995.69;;;4.29;49.28
27304;BME280;14791;52.392;13.092;2022-12-18T12:50:28;102985.98;;;4.34;49.23
27304;BME280;14791;52.392;13.092;2022-12-18T12:52:59;102985.96;;;4.40;49.13
27304;BME280;14791;52.392;13.092;2022-12-18T12:55:30;102996.98;;;4.47;49.00
27304;BME280;14791;52.392;13.092;2022-12-18T13:01:09;102983.30;;;4.57;48.86
27304;BME280;14791;52.392;13.092;2022-12-18T13:03:46;102976.69;;;4.52;48.85
27304;BME280;14791;52.392;13.092;2022-12-18T13:06:36;102989.50;;;4.51;48.83
27304;BME280;14791;52.392;13.092;2022-12-18T13:09:03;102988.63;;;4.51;48.86
27304;BME280;14791;52.392;13.092;2022-12-18T13:11:35;102982.89;;;4.48;48.89
27304;BME280;14791;52.392;13.092;2022-12-18T13:14:31;102982.43;;;4.52;48.80
27304;BME280;14791;52.392;13.092;2022-12-18T13:20:13;102974.94;;;4.51;48.87
27304;BME280;14791;52.392;13.092;2022-12-18T13:22:47;102967.00;;;4.51;48.98
27304;BME280;14791;52.392;13.092;2022-12-18T13:25:35;102969.66;;;4.53;49.03
27304;BME280;14791;52.392;13.092;2022-12-18T13:28:10;102968.75;;;4.57;48.99
27304;BME280;14791;52.392;13.092;2022-12-18T13:30:51;102963.00;;;4.57;49.03
27304;BME280;14791;52.392;13.092;2022-12-18T13:36:26;102956.81;;;4.64;48.97
27304;BME280;14791;52.392;13.092;2022-12-18T13:38:37;102965.23;;;4.67;48.88
27304;BME280;14791;52.392;13.092;2022-12-18T13:41:22;102964.34;;;4.69;48.78
27304;BME280;14791;52.392;13.092;2022-12-18T13:43:53;102971.39;;;4.72;48.69
27304;BME280;14791;52.392;13.092;2022-12-18T13:51:52;102961.68;;;4.68;48.71
27304;BME280;14791;52.392;13.092;2022-12-18T13:54:36;102963.43;;;4.69;48.59
27304;BME280;14791;52.392;13.092;2022-12-18T13:57:24;102969.63;;;4.68;48.57
27304;BME280;14791;52.392;13.092;2022-12-18T13:59:38;102959.03;;;4.63;48.71
27304;BME280;14791;52.392;13.092;2022-12-18T14:02:15;102950.22;;;4.63;48.65
27304;BME280;14791;52.392;13.092;2022-12-18T14:04:46;102946.23;;;4.61;48.62
27304;BME280;14791;52.392;13.092;2022-12-18T14:07:21;102940.08;;;4.58;48.62
27304;BME280;14791;52.392;13.092;2022-12-18T14:09:55;102940.97;;;4.55;48.60
27304;BME280;14791;52.392;13.092;2022-12-18T14:12:28;102929.48;;;4.52;48.62
27304;BME280;14791;52.392;13.092;2022-12-18T14:20:32;102932.61;;;4.34;48.78
27304;BME280;14791;52.392;13.092;2022-12-18T14:23:01;102918.50;;;4.29;48.90
27304;BME280;14791;52.392;13.092;2022-12-18T14:25:31;102917.62;;;4.27;48.85
27304;BME280;14791;52.392;13.092;2022-12-18T14:30:39;102914.09;;;4.25;48.79
27304;BME280;14791;52.392;13.092;2022-12-18T14:33:28;102917.63;;;4.24;48.84
27304;BME280;14791;52.392;13.092;2022-12-18T14:36:05;102911.00;;;4.22;48.84
27304;BME280;14791;52.392;13.092;2022-12-18T14:38:32;102907.91;;;4.23;48.85
27304;BME280;14791;52.392;13.092;2022-12-18T14:41:15;102908.78;;;4.23;48.83
27304;BME280;14791;52.392;13.092;2022-12-18T14:43:53;102918.05;;;4.23;48.75
27304;BME280;14791;52.392;13.092;2022-12-18T14:46:36;102926.44;;;4.20;48.70
27304;BME280;14791;52.392;13.092;2022-12-18T14:52:06;102915.85;;;4.11;48.76
27304;BME280;14791;52.392;13.092;2022-12-18T14:54:31;102920.25;;;4.04;48.80
27304;BME280;14791;52.392;13.092;2022-12-18T14:57:04;102919.37;;;4.02;48.92
27304;BME280;14791;52.392;13.092;2022-12-18T14:59:33;102916.73;;;4.03;48.86
27304;BME280;14791;52.392;13.092;2022-12-18T15:02:04;102919.38;;;4.03;48.98
27304;BME280;14791;52.392;13.092;2022-12-18T15:04:41;102927.73;;;4.04;48.92
27304;BME280;14791;52.392;13.092;2022-12-18T15:07:11;102921.13;;;4.04;48.88
27304;BME280;14791;52.392;13.092;2022-12-18T15:09:41;102919.38;;;4.03;48.84